Time;durP1;ratioP1;P1;durP2;ratioP2;P2;SDS_P1;SDS_P2;PMS_P1;PMS_P2;Temp;Humidity;BMP_temperature;BMP_pressure;BME280_temperature;BME280_humidity;BME280_pressure;Samples;Min_cycle;Max_cycle;Signal;HPM_P1;HPM_P2
2021/07/16 00:02:01;;;;;;;19.73;8.85;;;;;;;16.96;86.28;101636.63;4990999;28;20402;-75
2021/07/16 00:04:27;;;;;;;20.50;8.95;;;;;;;17.00;86.31;101637.06;4990005;28;20044;-76
2021/07/16 00:06:52;;;;;;;26.70;9.15;;;;;;;16.96;86.47;101633.19;4984835;28;20041;-74
2021/07/16 00:09:21;;;;;;;26.35;9.20;;;;;;;16.92;86.52;101630.09;5004490;28;20074;-76
2021/07/16 00:11:46;;;;;;;23.67;8.35;;;;;;;16.99;86.18;101635.44;5001990;28;20034;-74
2021/07/16 00:14:12;;;;;;;17.42;8.23;;;;;;;16.97;85.95;101642.66;5006025;28;20033;-76
2021/07/16 00:16:38;;;;;;;24.27;8.02;;;;;;;17.01;85.46;101642.16;4990242;28;20033;-76
2021/07/16 00:19:04;;;;;;;23.20;8.77;;;;;;;17.00;85.38;101639.69;4996991;28;20105;-74
2021/07/16 00:21:30;;;;;;;20.70;8.10;;;;;;;16.94;85.81;101643.84;5008845;28;20073;-76
2021/07/16 00:23:55;;;;;;;21.85;8.73;;;;;;;16.89;85.64;101643.56;5005946;28;20148;-75
2021/07/16 00:26:21;;;;;;;17.60;7.90;;;;;;;16.86;85.99;101649.97;4990283;28;20038;-78
2021/07/16 00:28:46;;;;;;;24.98;8.90;;;;;;;16.80;86.14;101648.03;5003949;28;20064;-77
2021/07/16 00:31:12;;;;;;;21.77;8.50;;;;;;;16.86;86.15;101643.94;4986448;28;20467;-76
2021/07/16 00:33:38;;;;;;;27.40;9.13;;;;;;;16.85;86.48;101652.75;5004560;28;20084;-76
2021/07/16 00:36:04;;;;;;;22.92;9.30;;;;;;;16.83;86.01;101650.31;4981675;28;20033;-76
2021/07/16 00:38:29;;;;;;;28.55;9.73;;;;;;;16.89;86.43;101651.41;5007617;28;20034;-75
2021/07/16 00:40:55;;;;;;;28.65;8.98;;;;;;;16.79;86.42;101656.88;5007651;28;20026;-76
2021/07/16 00:43:21;;;;;;;17.25;8.32;;;;;;;16.82;86.59;101651.31;5002143;28;20048;-73
2021/07/16 00:45:47;;;;;;;17.65;8.73;;;;;;;16.88;86.14;101652.41;5022556;28;20633;-74
2021/07/16 00:48:12;;;;;;;24.23;8.70;;;;;;;16.78;86.40;101654.41;5013083;28;20030;-75
2021/07/16 00:50:41;;;;;;;31.75;10.60;;;;;;;16.76;86.30;101659.03;4980440;28;20479;-74
2021/07/16 00:53:09;;;;;;;17.98;7.78;;;;;;;16.72;86.76;101658.56;5013617;28;20037;-76
2021/07/16 00:55:36;;;;;;;24.73;8.85;;;;;;;16.72;86.67;101656.75;5011508;28;20095;-74
2021/07/16 00:58:02;;;;;;;20.60;8.85;;;;;;;16.76;85.99;101656.41;5003326;28;20479;-76
2021/07/16 01:00:27;;;;;;;23.10;9.60;;;;;;;16.80;85.97;101658.50;5012349;28;20137;-74
2021/07/16 01:02:53;;;;;;;23.50;10.43;;;;;;;16.72;85.92;101663.78;4991732;28;20499;-76
2021/07/16 01:05:20;;;;;;;22.13;9.13;;;;;;;16.73;85.99;101660.19;5011326;28;20050;-75
2021/07/16 01:07:51;;;;;;;21.55;9.48;;;;;;;16.76;85.68;101659.03;4996937;28;20034;-75
2021/07/16 01:10:18;;;;;;;18.42;8.50;;;;;;;16.65;85.79;101658.47;5011810;28;20133;-76
2021/07/16 01:12:45;;;;;;;21.40;9.32;;;;;;;16.64;86.52;101654.19;5013617;28;20037;-75
2021/07/16 01:15:16;;;;;;;20.52;8.43;;;;;;;16.67;86.14;101660.88;5013105;28;20570;-75
2021/07/16 01:17:42;;;;;;;20.50;9.60;;;;;;;16.64;85.77;101664.66;5003894;28;20041;-76
2021/07/16 01:20:11;;;;;;;25.35;9.77;;;;;;;16.61;86.19;101667.63;4995860;28;20038;-76
2021/07/16 01:22:39;;;;;;;22.95;9.07;;;;;;;16.62;86.24;101668.47;4982029;28;20038;-75
2021/07/16 01:25:09;;;;;;;19.52;8.43;;;;;;;16.60;86.58;101670.44;5012568;28;20049;-73
2021/07/16 01:27:37;;;;;;;24.33;8.73;;;;;;;16.64;86.05;101664.66;5013903;28;20624;-75
2021/07/16 01:30:06;;;;;;;24.98;9.10;;;;;;;16.58;86.07;101654.91;4979238;28;20033;-74
2021/07/16 01:32:31;;;;;;;23.25;9.52;;;;;;;16.61;86.17;101659.78;5013601;28;20060;-75
2021/07/16 01:34:57;;;;;;;17.75;8.00;;;;;;;16.58;86.15;101664.56;4994574;28;20492;-75
2021/07/16 01:37:22;;;;;;;20.00;8.60;;;;;;;16.51;86.32;101659.19;5001729;28;20037;-76
2021/07/16 01:39:48;;;;;;;20.63;8.75;;;;;;;16.56;86.15;101667.34;4997290;28;20660;-77
2021/07/16 01:42:14;;;;;;;22.05;9.07;;;;;;;16.59;85.71;101661.75;5014509;28;20030;-75
2021/07/16 01:44:41;;;;;;;23.00;8.52;;;;;;;16.55;86.04;101663.91;5011256;28;20426;-75
2021/07/16 01:47:08;;;;;;;24.08;9.35;;;;;;;16.49;86.08;101648.09;5011822;28;20033;-75
2021/07/16 01:49:34;;;;;;;21.70;9.65;;;;;;;16.43;86.08;101654.84;4980309;28;20483;-75
2021/07/16 01:51:59;;;;;;;20.85;8.00;;;;;;;16.46;85.77;101658.91;5012305;28;20060;-75
2021/07/16 01:54:25;;;;;;;21.10;9.35;;;;;;;16.44;85.78;101659.06;4992793;28;20033;-75
2021/07/16 01:56:51;;;;;;;26.13;10.07;;;;;;;16.45;85.96;101659.91;5007894;28;20073;-75
2021/07/16 01:59:17;;;;;;;21.67;9.20;;;;;;;16.50;85.95;101654.94;4983770;28;20033;-75
2021/07/16 02:01:42;;;;;;;19.25;9.23;;;;;;;16.39;86.48;101655.34;4993723;28;20038;-75
2021/07/16 02:04:08;;;;;;;20.42;8.98;;;;;;;16.38;86.07;101659.78;5006218;28;20359;-75
2021/07/16 02:06:35;;;;;;;26.40;9.52;;;;;;;16.41;85.96;101664.66;5008515;28;20042;-75
2021/07/16 02:09:00;;;;;;;28.60;9.93;;;;;;;16.43;85.30;101661.88;5008509;28;20366;-75
2021/07/16 02:11:27;;;;;;;26.77;8.85;;;;;;;16.40;85.62;101659.59;5008181;28;20041;-76
2021/07/16 02:13:53;;;;;;;18.00;8.88;;;;;;;16.35;85.67;101665.38;5000727;28;20103;-76
2021/07/16 02:16:19;;;;;;;19.45;9.10;;;;;;;16.34;85.79;101668.97;4991191;28;20048;-76
2021/07/16 02:18:52;;;;;;;18.52;8.55;;;;;;;16.37;85.77;101673.03;4973953;28;20434;-75
2021/07/16 02:21:18;;;;;;;20.85;8.55;;;;;;;16.38;85.72;101678.09;4987807;28;20048;-76
2021/07/16 02:23:44;;;;;;;25.88;8.60;;;;;;;16.37;85.32;101675.66;4989530;28;20034;-75
2021/07/16 02:26:10;;;;;;;18.98;8.88;;;;;;;16.29;85.45;101673.91;5008590;28;20034;-76
2021/07/16 02:28:36;;;;;;;21.70;8.20;;;;;;;16.28;85.70;101674.91;5008638;28;20116;-75
2021/07/16 02:31:05;;;;;;;17.83;8.65;;;;;;;16.24;85.90;101668.38;4991673;28;20104;-75
2021/07/16 02:33:30;;;;;;;24.90;10.35;;;;;;;16.24;85.60;101674.41;4989238;28;20042;-75
2021/07/16 02:35:56;;;;;;;17.10;7.65;;;;;;;16.30;85.68;101675.53;5007598;28;20399;-75
2021/07/16 02:38:22;;;;;;;18.52;8.27;;;;;;;16.24;85.61;101678.84;5009651;28;20045;-76
2021/07/16 02:40:48;;;;;;;19.10;7.85;;;;;;;16.29;85.17;101685.19;5009471;28;20391;-76
2021/07/16 02:43:14;;;;;;;33.17;8.75;;;;;;;16.26;85.46;101685.53;5008268;28;20026;-76
2021/07/16 02:45:41;;;;;;;20.13;8.38;;;;;;;16.23;85.83;101685.06;5007236;28;20044;-76
2021/07/16 02:48:07;;;;;;;20.92;8.50;;;;;;;16.18;85.60;101689.97;5008258;28;20061;-77
2021/07/16 02:50:35;;;;;;;15.50;7.65;;;;;;;16.14;85.92;101687.72;5008086;28;20462;-75
2021/07/16 02:53:00;;;;;;;17.98;8.15;;;;;;;16.12;85.98;101689.69;4982098;28;20064;-76
2021/07/16 02:55:26;;;;;;;17.70;7.97;;;;;;;16.11;85.94;101684.63;5003045;28;20414;-76
2021/07/16 02:57:52;;;;;;;17.98;7.35;;;;;;;16.16;85.15;101682.28;5006122;28;20092;-75
2021/07/16 03:00:23;;;;;;;15.90;7.13;;;;;;;16.17;85.15;101688.38;5003088;28;20045;-75
2021/07/16 03:02:50;;;;;;;20.70;7.85;;;;;;;16.13;85.03;101683.47;5007858;28;20034;-76
2021/07/16 03:05:18;;;;;;;19.58;7.32;;;;;;;16.12;85.30;101689.69;5003421;28;20041;-76
2021/07/16 03:07:45;;;;;;;19.58;7.97;;;;;;;16.07;85.63;101689.38;4992050;28;20030;-74
2021/07/16 03:10:18;;;;;;;14.90;7.40;;;;;;;16.12;85.14;101701.94;5008415;28;20501;-76
2021/07/16 03:12:44;;;;;;;19.67;7.82;;;;;;;16.19;85.15;101697.66;5008771;28;20029;-74
2021/07/16 03:15:16;;;;;;;22.05;8.05;;;;;;;16.12;84.96;101708.00;5008987;28;20068;-75
2021/07/16 03:17:42;;;;;;;14.80;7.10;;;;;;;16.17;84.90;101701.44;5001031;28;20058;-76
2021/07/16 03:20:09;;;;;;;14.65;6.68;;;;;;;16.09;85.04;101710.97;5006991;28;20373;-75
2021/07/16 03:22:35;;;;;;;16.27;8.13;;;;;;;16.12;85.19;101707.16;5008884;28;20109;-76
2021/07/16 03:25:02;;;;;;;19.42;7.25;;;;;;;16.00;85.71;101705.94;5007874;28;20152;-75
2021/07/16 03:27:28;;;;;;;23.88;7.47;;;;;;;15.98;85.48;101703.47;5008133;28;20029;-75
2021/07/16 03:29:53;;;;;;;20.02;8.65;;;;;;;16.03;84.97;101714.25;5008482;28;20029;-75
2021/07/16 03:32:19;;;;;;;19.45;8.68;;;;;;;15.92;85.67;101710.19;4993586;28;20033;-77
2021/07/16 03:34:44;;;;;;;17.83;7.90;;;;;;;15.93;85.86;101717.06;4989210;28;20038;-75
2021/07/16 03:37:10;;;;;;;17.42;7.72;;;;;;;15.90;86.07;101717.41;4992188;28;20406;-76
2021/07/16 03:39:35;;;;;;;19.38;8.23;;;;;;;15.88;85.99;101722.00;4984443;28;20045;-76
2021/07/16 03:42:01;;;;;;;23.05;8.95;;;;;;;15.88;86.53;101731.63;4997049;28;20076;-74
2021/07/16 03:44:26;;;;;;;22.13;8.60;;;;;;;15.89;86.51;101731.44;5008126;28;20033;-75
2021/07/16 03:46:51;;;;;;;17.77;7.72;;;;;;;15.88;86.53;101740.31;4986683;28;20042;-74
2021/07/16 03:49:17;;;;;;;26.90;9.15;;;;;;;15.91;86.27;101736.53;5008991;28;20034;-75
2021/07/16 03:51:43;;;;;;;18.95;7.50;;;;;;;15.84;86.90;101741.63;5007018;28;20036;-75
2021/07/16 03:54:08;;;;;;;19.92;8.98;;;;;;;15.89;86.69;101741.09;5006158;28;20026;-74
2021/07/16 03:56:33;;;;;;;21.02;8.90;;;;;;;15.87;86.65;101743.06;5003886;28;20033;-75
2021/07/16 03:58:59;;;;;;;19.95;8.95;;;;;;;15.84;87.04;101736.41;4988756;28;20045;-74
2021/07/16 04:01:24;;;;;;;19.55;8.80;;;;;;;15.86;86.87;101741.44;5007844;28;20041;-74
2021/07/16 04:03:50;;;;;;;20.45;8.13;;;;;;;15.90;86.73;101742.75;5007958;28;20068;-74
2021/07/16 04:06:15;;;;;;;26.23;8.32;;;;;;;15.92;86.50;101741.59;4990492;28;20058;-75
2021/07/16 04:08:43;;;;;;;15.02;8.25;;;;;;;15.83;86.86;101739.97;4990330;28;20029;-74
2021/07/16 04:11:09;;;;;;;18.08;8.07;;;;;;;15.86;86.68;101750.13;5007948;28;20541;-74
2021/07/16 04:13:34;;;;;;;26.60;7.53;;;;;;;15.83;86.75;101754.88;4985875;28;20038;-75
2021/07/16 04:16:00;;;;;;;17.00;7.20;;;;;;;15.76;86.72;101758.16;5004999;28;20501;-74
2021/07/16 04:18:26;;;;;;;20.45;8.65;;;;;;;15.76;86.81;101762.53;4988437;28;20038;-75
2021/07/16 04:20:52;;;;;;;17.45;8.13;;;;;;;15.78;87.04;101757.97;5006133;28;20022;-74
2021/07/16 04:23:17;;;;;;;17.83;8.85;;;;;;;15.80;87.07;101758.59;4991268;28;20041;-74
2021/07/16 04:25:43;;;;;;;17.48;8.30;;;;;;;15.87;87.15;101754.34;5008450;28;20033;-75
2021/07/16 04:28:08;;;;;;;16.92;8.50;;;;;;;15.81;86.79;101762.06;4990235;28;20037;-74
2021/07/16 04:30:34;;;;;;;14.93;7.57;;;;;;;15.78;87.08;101763.19;4988282;28;20042;-76
2021/07/16 04:33:02;;;;;;;19.25;8.25;;;;;;;15.81;87.13;101769.91;4974332;28;20034;-74
2021/07/16 04:35:28;;;;;;;19.50;8.57;;;;;;;15.81;87.06;101764.69;4997193;28;20042;-75
2021/07/16 04:37:54;;;;;;;19.67;8.50;;;;;;;15.83;86.62;101760.09;4987766;28;20042;-75
2021/07/16 04:40:21;;;;;;;14.52;8.18;;;;;;;15.80;86.92;101771.69;5005125;28;20553;-74
2021/07/16 04:42:53;;;;;;;17.25;7.72;;;;;;;15.83;86.90;101766.13;5004057;28;20033;-75
2021/07/16 04:45:19;;;;;;;20.00;8.57;;;;;;;15.85;86.48;101766.78;4971722;28;20040;-74
2021/07/16 04:47:45;;;;;;;21.75;9.32;;;;;;;15.84;87.15;101766.94;5006626;28;20061;-75
2021/07/16 04:50:12;;;;;;;16.52;8.55;;;;;;;15.80;87.25;101770.88;5008178;28;20037;-75
2021/07/16 04:52:40;;;;;;;15.90;8.20;;;;;;;15.79;87.37;101774.50;5008423;28;20042;-74
2021/07/16 04:55:06;;;;;;;18.48;8.48;;;;;;;15.80;86.95;101773.50;5005464;28;20656;-75
2021/07/16 04:57:31;;;;;;;15.98;8.10;;;;;;;15.82;87.47;101774.94;4999618;28;20061;-75
2021/07/16 04:59:56;;;;;;;18.73;8.55;;;;;;;15.87;87.18;101774.47;5001427;28;20030;-75
2021/07/16 05:02:22;;;;;;;21.60;9.35;;;;;;;15.92;86.94;101772.97;4987745;28;20034;-75
2021/07/16 05:04:47;;;;;;;23.90;9.18;;;;;;;15.94;86.89;101773.63;5006547;28;20062;-73
2021/07/16 05:07:14;;;;;;;18.08;9.30;;;;;;;15.93;87.26;101774.59;5006218;28;20133;-74
2021/07/16 05:09:40;;;;;;;18.13;10.23;;;;;;;15.92;87.38;101772.97;5003767;28;20384;-75
2021/07/16 05:12:06;;;;;;;21.52;10.13;;;;;;;15.95;87.14;101785.72;4987524;28;20080;-74
2021/07/16 05:14:31;;;;;;;20.15;9.77;;;;;;;16.02;86.94;101785.84;5005831;28;20034;-75
2021/07/16 05:16:57;;;;;;;19.35;9.18;;;;;;;15.96;86.96;101787.34;5004462;28;20487;-74
2021/07/16 05:19:22;;;;;;;20.92;10.63;;;;;;;16.01;86.90;101786.84;5006075;28;20033;-74
2021/07/16 05:21:48;;;;;;;23.88;9.75;;;;;;;16.06;86.53;101788.97;5006817;28;20030;-75
2021/07/16 05:24:13;;;;;;;17.65;9.23;;;;;;;16.09;86.32;101780.78;5002292;28;20460;-74
2021/07/16 05:26:39;;;;;;;25.67;10.48;;;;;;;15.95;86.49;101790.97;5006248;28;20026;-75
2021/07/16 05:29:04;;;;;;;21.88;9.48;;;;;;;15.85;86.83;101784.28;4985423;28;20033;-75
2021/07/16 05:31:30;;;;;;;25.27;8.73;;;;;;;15.87;86.75;101788.34;4992933;28;20029;-74
2021/07/16 05:33:56;;;;;;;20.17;9.85;;;;;;;15.90;87.25;101795.06;5000803;28;20064;-78
2021/07/16 05:36:21;;;;;;;20.50;9.43;;;;;;;15.94;86.62;101788.50;5014710;28;20056;-75
2021/07/16 05:38:47;;;;;;;24.25;9.48;;;;;;;15.90;86.99;101790.63;5006391;28;20395;-75
2021/07/16 05:41:12;;;;;;;17.10;8.70;;;;;;;15.94;87.06;101796.34;5005085;28;20160;-74
2021/07/16 05:43:38;;;;;;;22.02;9.60;;;;;;;15.87;86.35;101798.81;5011347;28;20502;-76
2021/07/16 05:46:04;;;;;;;18.45;9.43;;;;;;;15.93;86.53;101800.75;5010522;28;20038;-75
2021/07/16 05:48:31;;;;;;;18.20;9.98;;;;;;;15.95;86.88;101803.19;4995535;28;20034;-77
2021/07/16 05:50:58;;;;;;;19.02;9.45;;;;;;;15.90;86.63;101813.38;5010282;28;20045;-75
2021/07/16 05:53:24;;;;;;;17.58;9.65;;;;;;;15.91;86.65;101812.38;5008782;28;20034;-75
2021/07/16 05:55:49;;;;;;;20.35;9.88;;;;;;;15.84;86.32;101814.00;4993351;28;20065;-74
2021/07/16 05:58:15;;;;;;;28.98;10.88;;;;;;;15.79;85.74;101813.72;5006863;28;20053;-75
2021/07/16 06:00:40;;;;;;;24.25;10.52;;;;;;;15.72;86.14;101816.94;5009731;28;20034;-75
2021/07/16 06:03:06;;;;;;;24.92;10.38;;;;;;;15.79;85.90;101813.72;5006936;28;20041;-75
2021/07/16 06:05:32;;;;;;;26.60;10.30;;;;;;;15.75;86.02;101810.59;4992030;28;20041;-77
2021/07/16 06:07:58;;;;;;;19.17;8.77;;;;;;;15.75;86.20;101821.88;4999814;28;20449;-75
2021/07/16 06:10:24;;;;;;;32.97;10.70;;;;;;;15.76;85.00;101820.91;5010480;28;20034;-75
2021/07/16 06:12:49;;;;;;;22.23;10.07;;;;;;;15.73;85.18;101826.47;4990208;28;20095;-75
2021/07/16 06:15:15;;;;;;;22.20;10.68;;;;;;;15.66;85.11;101822.84;4994789;28;20034;-75
2021/07/16 06:17:41;;;;;;;34.40;10.25;;;;;;;15.61;85.09;101819.88;5012054;28;20030;-75
2021/07/16 06:20:08;;;;;;;29.65;10.75;;;;;;;15.61;85.32;101825.13;5010021;28;20041;-75
2021/07/16 06:22:35;;;;;;;23.83;10.13;;;;;;;15.64;85.46;101826.59;4994525;28;20056;-75
2021/07/16 06:25:00;;;;;;;25.05;9.68;;;;;;;15.62;85.00;101829.38;5003734;28;20116;-76
2021/07/16 06:27:26;;;;;;;25.13;10.05;;;;;;;15.68;85.34;101825.28;5011253;28;20029;-73
2021/07/16 06:29:52;;;;;;;34.13;11.05;;;;;;;15.68;85.08;101826.09;4995738;28;20072;-75
2021/07/16 06:32:17;;;;;;;34.72;10.98;;;;;;;15.65;85.14;101826.44;5010323;28;20030;-75
2021/07/16 06:34:43;;;;;;;29.30;10.93;;;;;;;15.67;85.37;101832.31;5008817;28;20538;-76
2021/07/16 06:37:08;;;;;;;37.63;9.80;;;;;;;15.69;83.85;101834.75;5009576;28;20165;-77
2021/07/16 06:39:34;;;;;;;31.63;10.50;;;;;;;15.68;84.08;101836.56;4976106;28;20074;-75
2021/07/16 06:41:59;;;;;;;35.35;10.52;;;;;;;15.77;83.60;101829.56;5009666;28;20173;-75
2021/07/16 06:44:25;;;;;;;31.90;10.25;;;;;;;15.82;83.75;101831.66;4992035;28;20037;-75
2021/07/16 06:46:50;;;;;;;36.30;10.60;;;;;;;15.79;84.01;101834.63;5011626;28;20046;-77
2021/07/16 06:49:16;;;;;;;30.38;10.55;;;;;;;15.68;83.02;101831.31;4990089;28;20046;-74
2021/07/16 06:51:41;;;;;;;19.80;8.85;;;;;;;15.70;83.18;101834.59;4993839;28;20030;-75
2021/07/16 06:54:07;;;;;;;29.73;10.13;;;;;;;15.77;82.98;101832.97;4979431;28;20034;-74
2021/07/16 06:56:36;;;;;;;32.10;9.40;;;;;;;15.79;82.33;101842.47;4992949;28;20550;-76
2021/07/16 06:59:02;;;;;;;28.40;10.10;;;;;;;15.75;83.43;101842.00;4989420;28;20345;-75
2021/07/16 07:01:28;;;;;;;29.25;10.98;;;;;;;15.81;83.19;101846.53;4970753;28;20026;-76
2021/07/16 07:03:53;;;;;;;31.63;10.07;;;;;;;15.78;82.87;101849.47;5006934;28;20042;-74
2021/07/16 07:06:18;;;;;;;26.92;8.70;;;;;;;15.84;82.91;101848.84;4993219;28;20073;-74
2021/07/16 07:08:44;;;;;;;27.15;9.65;;;;;;;15.85;82.92;101857.50;5010013;28;20034;-76
2021/07/16 07:11:09;;;;;;;44.22;10.25;;;;;;;15.93;82.68;101865.31;5010966;28;20022;-74
2021/07/16 07:13:35;;;;;;;30.70;9.32;;;;;;;15.87;82.13;101863.38;5008825;28;20688;-75
2021/07/16 07:16:01;;;;;;;23.70;7.88;;;;;;;15.95;82.54;101873.81;4991553;28;20030;-75
2021/07/16 07:18:27;;;;;;;33.97;9.38;;;;;;;15.97;81.65;101871.84;4974379;28;20145;-75
2021/07/16 07:20:53;;;;;;;22.63;8.23;;;;;;;15.88;81.61;101868.44;5001021;28;20035;-74
2021/07/16 07:23:19;;;;;;;22.27;7.93;;;;;;;15.92;81.96;101864.50;5005400;28;20538;-75
2021/07/16 07:25:46;;;;;;;23.70;8.43;;;;;;;16.10;81.75;101869.53;5008274;28;20117;-75
2021/07/16 07:28:11;;;;;;;25.65;8.52;;;;;;;16.13;81.77;101878.88;4990181;28;20052;-75
2021/07/16 07:30:37;;;;;;;31.38;9.18;;;;;;;16.18;81.71;101870.50;5006496;28;20105;-75
2021/07/16 07:33:04;;;;;;;23.27;7.53;;;;;;;16.23;80.96;101878.69;4987839;28;20076;-76
2021/07/16 07:35:32;;;;;;;27.98;8.45;;;;;;;16.28;80.99;101876.41;4990630;28;20041;-74
2021/07/16 07:37:57;;;;;;;27.02;9.00;;;;;;;16.26;81.21;101876.56;5008714;28;20532;-76
2021/07/16 07:40:23;;;;;;;30.20;8.98;;;;;;;16.36;80.93;101878.97;4996334;28;20030;-75
2021/07/16 07:42:48;;;;;;;21.27;6.95;;;;;;;16.51;81.19;101881.72;5008816;28;20030;-76
2021/07/16 07:45:14;;;;;;;22.95;6.85;;;;;;;16.50;80.49;101880.06;4989723;28;20501;-76
2021/07/16 07:47:40;;;;;;;22.30;7.47;;;;;;;16.64;79.93;101881.19;5006497;28;20033;-76
2021/07/16 07:50:12;;;;;;;17.83;6.32;;;;;;;16.68;79.19;101883.28;4990045;28;20073;-73
2021/07/16 07:52:37;;;;;;;23.10;6.90;;;;;;;16.69;78.70;101891.97;5007621;28;20030;-75
2021/07/16 07:55:03;;;;;;;20.77;6.53;;;;;;;16.70;78.27;101888.34;5006438;28;20422;-75
2021/07/16 07:57:28;;;;;;;16.92;6.50;;;;;;;16.71;78.77;101895.25;5001210;28;20052;-76
2021/07/16 07:59:54;;;;;;;20.48;7.00;;;;;;;16.79;78.96;101891.75;5013869;28;20676;-77
2021/07/16 08:02:19;;;;;;;21.70;6.75;;;;;;;16.88;78.29;101890.78;5002776;28;20064;-75
2021/07/16 08:04:45;;;;;;;17.83;6.45;;;;;;;16.93;78.34;101891.06;5003562;28;20034;-76
2021/07/16 08:07:10;;;;;;;20.05;7.60;;;;;;;16.91;77.84;101891.25;4988531;28;20037;-75
2021/07/16 08:09:36;;;;;;;25.98;7.18;;;;;;;16.92;77.94;101889.44;4983793;28;20034;-76
2021/07/16 08:12:03;;;;;;;19.85;7.32;;;;;;;17.10;78.33;101897.88;4986387;28;20041;-76
2021/07/16 08:14:29;;;;;;;21.13;7.60;;;;;;;17.14;77.80;101895.72;5004917;28;20549;-76
2021/07/16 08:16:54;;;;;;;19.25;7.43;;;;;;;17.21;76.68;101904.50;4993295;28;20034;-76
2021/07/16 08:19:20;;;;;;;22.20;6.78;;;;;;;17.14;76.50;101903.56;5001454;28;20545;-74
2021/07/16 08:21:52;;;;;;;18.05;5.20;;;;;;;17.25;76.22;101897.94;4987193;28;20499;-75
2021/07/16 08:24:18;;;;;;;15.80;5.43;;;;;;;17.31;76.07;101902.47;5003169;28;20522;-77
2021/07/16 08:26:46;;;;;;;21.17;6.05;;;;;;;17.40;75.93;101905.84;4985264;28;20037;-76
2021/07/16 08:29:12;;;;;;;13.70;5.35;;;;;;;17.43;75.70;101902.88;4998134;28;20037;-77
2021/07/16 08:31:38;;;;;;;21.40;5.00;;;;;;;17.44;75.13;101906.31;4998580;28;20140;-74
2021/07/16 08:34:05;;;;;;;22.20;5.13;;;;;;;17.50;74.48;101910.88;4972787;28;20072;-74
2021/07/16 08:36:30;;;;;;;13.32;4.40;;;;;;;17.55;74.54;101919.03;5008475;28;20030;-74
2021/07/16 08:38:56;;;;;;;23.23;6.38;;;;;;;17.55;73.14;101912.97;5007656;28;20505;-75
2021/07/16 08:41:21;;;;;;;14.52;5.18;;;;;;;17.63;73.54;101915.53;5007868;28;20038;-77
2021/07/16 08:43:48;;;;;;;13.35;5.22;;;;;;;17.68;73.93;101918.44;4988166;28;20259;-76
2021/07/16 08:46:14;;;;;;;16.30;5.97;;;;;;;17.86;74.54;101913.72;5004649;28;20113;-76
2021/07/16 08:48:40;;;;;;;12.35;4.97;;;;;;;17.99;73.69;101918.38;4987388;28;21383;-75
2021/07/16 08:51:11;;;;;;;17.50;4.72;;;;;;;18.13;73.15;101915.97;4972988;28;20037;-75
2021/07/16 08:53:37;;;;;;;18.83;5.43;;;;;;;18.23;73.04;101921.75;4985734;28;20073;-75
2021/07/16 08:56:04;;;;;;;17.55;4.47;;;;;;;18.07;72.90;101917.50;4985535;28;20053;-76
2021/07/16 08:58:29;;;;;;;20.08;4.53;;;;;;;17.90;73.01;101925.50;4986352;28;20510;-76
2021/07/16 09:00:55;;;;;;;12.10;4.28;;;;;;;17.85;73.29;101921.78;4982861;28;20038;-76
2021/07/16 09:03:20;;;;;;;14.95;5.13;;;;;;;18.01;73.40;101926.09;4998691;28;20042;-75
2021/07/16 09:05:46;;;;;;;19.95;4.30;;;;;;;18.01;74.17;101919.03;5001364;28;20033;-75
2021/07/16 09:08:15;;;;;;;13.25;4.07;;;;;;;18.07;74.24;101923.53;5009763;28;20441;-74
2021/07/16 09:10:53;;;;;;;13.30;4.80;;;;;;;18.28;74.21;101922.03;5007294;28;20073;-75
2021/07/16 09:13:21;;;;;;;12.88;4.40;;;;;;;18.25;72.73;101931.09;4993261;28;20034;-75
2021/07/16 09:15:49;;;;;;;12.60;4.30;;;;;;;18.41;72.81;101919.59;5007734;28;20536;-74
2021/07/16 09:18:22;;;;;;;15.77;4.93;;;;;;;18.49;71.21;101926.56;4994126;28;20438;-74
2021/07/16 09:21:07;;;;;;;;;;;;;;;18.35;71.44;101924.78;5009147;28;20033;-76
2021/07/16 09:23:41;;;;;;;17.17;4.40;;;;;;;18.20;72.43;101924.75;5010635;28;19924;-73
2021/07/16 09:26:15;;;;;;;14.52;5.05;;;;;;;18.06;72.10;101939.47;4977783;28;20041;-75
2021/07/16 09:28:48;;;;;;;15.38;4.75;;;;;;;18.02;72.86;101943.44;4975144;28;20034;-75
2021/07/16 09:31:19;;;;;;;16.70;4.47;;;;;;;18.00;72.25;101938.38;4994316;28;20069;-75
2021/07/16 09:33:50;;;;;;;19.98;5.75;;;;;;;17.98;71.84;101945.59;4988883;28;20032;-75
2021/07/16 09:36:33;;;;;;;14.73;4.53;;;;;;;18.01;72.24;101945.25;4996382;28;20437;-75
2021/07/16 09:39:16;;;;;;;13.70;4.15;;;;;;;18.20;72.35;101945.75;5001888;28;20419;-74
2021/07/16 09:41:50;;;;;;;19.48;5.63;;;;;;;18.14;71.15;101951.69;5000580;28;20121;-75
2021/07/16 09:44:29;;;;;;;16.25;5.15;;;;;;;18.14;71.91;101955.16;5005690;28;20063;-75
2021/07/16 09:47:21;;;;;;;18.58;4.53;;;;;;;18.17;72.78;101956.59;5003980;28;20108;-75
2021/07/16 09:50:07;;;;;;;16.80;4.95;;;;;;;18.27;71.90;101962.41;5001503;28;20049;-74
2021/07/16 09:52:32;;;;;;;16.80;4.20;;;;;;;18.36;70.71;101965.78;4986301;28;20120;-74
2021/07/16 09:55:14;;;;;;;27.23;5.30;;;;;;;18.45;71.07;101957.63;5004644;28;20022;-75
2021/07/16 09:57:44;;;;;;;20.17;5.10;;;;;;;18.44;70.86;101961.25;5008125;28;20100;-74
2021/07/16 10:00:18;;;;;;;16.38;4.20;;;;;;;18.46;70.12;101971.59;4989951;28;20041;-75
2021/07/16 10:02:49;;;;;;;19.17;4.35;;;;;;;18.39;70.07;101963.59;5005772;28;20360;-75
2021/07/16 10:05:15;;;;;;;18.38;4.80;;;;;;;18.27;70.46;101965.84;5010246;28;20061;-75
2021/07/16 10:07:42;;;;;;;21.73;5.55;;;;;;;18.32;71.08;101961.88;5010842;28;20037;-74
2021/07/16 10:10:13;;;;;;;18.90;6.05;;;;;;;18.43;70.79;101969.31;4992151;28;20049;-74
2021/07/16 10:12:44;;;;;;;16.48;5.05;;;;;;;18.47;71.79;101967.94;4993272;28;20034;-73
2021/07/16 10:15:11;;;;;;;18.88;5.30;;;;;;;18.47;70.16;101967.94;5008398;28;20042;-74
2021/07/16 10:17:37;;;;;;;21.40;5.43;;;;;;;18.49;70.25;101969.41;4988498;28;20434;-74
2021/07/16 10:20:07;;;;;;;22.75;4.68;;;;;;;18.54;70.65;101960.19;5004457;28;20030;-74
2021/07/16 10:22:34;;;;;;;20.92;5.65;;;;;;;18.65;70.28;101965.00;5010319;28;20037;-74
2021/07/16 10:25:00;;;;;;;16.55;3.92;;;;;;;18.65;69.11;101965.00;5012249;28;20228;-73
2021/07/16 10:27:25;;;;;;;14.80;4.10;;;;;;;18.68;69.59;101968.06;4980602;28;20440;-75
2021/07/16 10:30:13;;;;;;;24.70;5.60;;;;;;;18.81;69.75;101972.69;4976114;28;20038;-74
2021/07/16 10:32:42;;;;;;;16.00;4.38;;;;;;;18.88;69.41;101966.72;4988847;28;20030;-75
2021/07/16 10:35:29;;;;;;;12.93;4.00;;;;;;;18.99;69.91;101968.91;5010319;28;20053;-75
2021/07/16 10:37:59;;;;;;;15.65;4.25;;;;;;;19.01;69.14;101961.63;4990760;28;20033;-75
2021/07/16 10:40:43;;;;;;;28.48;6.13;;;;;;;19.03;69.88;101968.31;4993730;28;20065;-75
2021/07/16 10:43:29;;;;;;;17.40;4.80;;;;;;;19.21;69.57;101964.47;4990375;28;20041;-74
2021/07/16 10:45:56;;;;;;;21.58;4.88;;;;;;;19.29;67.40;101966.19;4958499;28;20426;-74
2021/07/16 10:48:37;;;;;;;22.70;5.00;;;;;;;19.18;67.75;101967.50;4990190;28;20030;-75
2021/07/16 10:51:04;;;;;;;23.30;5.10;;;;;;;19.19;68.54;101961.22;5010197;28;20038;-75
2021/07/16 10:53:29;;;;;;;19.55;5.60;;;;;;;19.17;67.90;101961.41;4991905;28;20092;-74
2021/07/16 10:55:55;;;;;;;22.40;5.45;;;;;;;19.09;68.87;101964.16;5008518;28;20116;-73
2021/07/16 10:58:20;;;;;;;22.73;5.35;;;;;;;19.14;68.28;101961.78;5009756;28;20548;-74
2021/07/16 11:00:48;;;;;;;30.88;5.28;;;;;;;19.19;66.01;101969.13;4991917;28;20141;-76
2021/07/16 11:03:14;;;;;;;28.65;4.93;;;;;;;19.17;67.65;101971.91;4996964;28;20033;-73
2021/07/16 11:05:41;;;;;;;28.63;6.00;;;;;;;19.17;66.86;101979.00;5009326;28;20072;-75
2021/07/16 11:08:47;;;;;;;23.20;5.18;;;;;;;19.06;66.50;101975.84;4992787;28;20040;-75
2021/07/16 11:11:21;;;;;;;26.42;6.05;;;;;;;19.05;65.84;101979.47;4993721;28;20507;-75
2021/07/16 11:13:46;;;;;;;21.08;5.65;;;;;;;19.20;66.95;101978.63;5004286;28;20062;-75
2021/07/16 11:16:15;;;;;;;18.30;4.35;;;;;;;19.23;67.24;101981.72;4989530;28;20137;-74
2021/07/16 11:19:03;;;;;;;27.23;5.38;;;;;;;19.42;66.27;101977.69;5008166;28;20045;-75